createdAt,value
2017-12-04T00:01:26.018Z,6.44
2017-12-04T00:03:53.361Z,6.41
2017-12-04T00:06:19.820Z,6.36
2017-12-04T00:08:46.273Z,6.36
2017-12-04T00:11:12.791Z,6.33
2017-12-04T00:13:39.225Z,6.35
2017-12-04T00:16:05.662Z,6.33
2017-12-04T00:18:31.992Z,6.23
2017-12-04T00:20:59.331Z,6.21
2017-12-04T00:23:25.770Z,6.25
2017-12-04T00:25:52.116Z,6.25
2017-12-04T00:28:18.448Z,6.26
2017-12-04T00:30:44.883Z,6.31
2017-12-04T00:33:11.319Z,6.33
2017-12-04T00:35:37.648Z,6.36
2017-12-04T00:38:05.064Z,6.43
2017-12-04T00:40:31.468Z,6.49
2017-12-04T00:42:57.832Z,6.47
2017-12-04T00:45:24.309Z,6.47
2017-12-04T00:47:50.744Z,6.50
2017-12-04T00:50:17.178Z,6.50
2017-12-04T00:52:43.562Z,6.48
2017-12-04T00:55:10.765Z,6.42
2017-12-04T00:57:37.199Z,6.41
2017-12-04T01:00:03.634Z,6.32
2017-12-04T01:02:30.003Z,6.29
2017-12-04T01:04:56.338Z,6.30
2017-12-04T01:07:22.804Z,6.29
2017-12-04T01:09:49.245Z,6.29
2017-12-04T01:12:16.423Z,6.35
2017-12-04T01:14:42.856Z,6.33
2017-12-04T01:17:09.295Z,6.42
2017-12-04T01:19:35.724Z,6.44
2017-12-04T01:22:02.160Z,6.42
2017-12-04T01:24:28.696Z,6.40
2017-12-04T01:26:55.131Z,6.30
2017-12-04T01:29:22.283Z,6.43
2017-12-04T01:31:48.721Z,6.41
2017-12-04T01:34:15.174Z,6.36
2017-12-04T01:36:41.586Z,6.32
2017-12-04T01:39:08.021Z,6.32
2017-12-04T01:41:34.455Z,6.34
2017-12-04T01:44:00.825Z,6.32
2017-12-04T01:46:28.043Z,6.35
2017-12-04T01:48:54.477Z,6.29
2017-12-04T01:51:20.912Z,6.31
2017-12-04T01:53:47.348Z,6.30
2017-12-04T01:56:13.781Z,6.29
2017-12-04T01:58:40.146Z,6.28
2017-12-04T02:01:06.503Z,6.14
2017-12-04T02:03:33.798Z,6.33
2017-12-04T02:06:00.133Z,6.34
2017-12-04T02:08:26.568Z,6.38
2017-12-04T02:10:53.002Z,6.32
2017-12-04T02:13:19.370Z,6.30
2017-12-04T02:15:45.682Z,6.25
2017-12-04T02:18:12.001Z,6.23
2017-12-04T02:20:39.286Z,6.28
2017-12-04T02:23:05.687Z,6.37
2017-12-04T02:25:31.994Z,6.27
2017-12-04T02:27:58.456Z,6.29
2017-12-04T02:30:24.889Z,6.27
2017-12-04T02:32:51.323Z,6.26
2017-12-04T02:35:17.760Z,6.21
2017-12-04T02:37:44.813Z,6.17
2017-12-04T02:40:11.241Z,6.21
2017-12-04T02:42:37.676Z,6.26
2017-12-04T02:45:04.111Z,6.27
2017-12-04T02:47:30.564Z,6.18
2017-12-04T02:49:56.979Z,6.18
2017-12-04T02:52:23.358Z,6.20
2017-12-04T02:54:50.566Z,6.14
2017-12-04T02:57:16.934Z,6.11
2017-12-04T02:59:43.334Z,6.15
2017-12-04T03:02:09.665Z,6.14
2017-12-04T03:04:36.099Z,6.13
2017-12-04T03:07:02.534Z,6.13
2017-12-04T03:09:28.968Z,6.08
2017-12-04T03:11:56.120Z,6.13
2017-12-04T03:14:22.556Z,6.14
2017-12-04T03:16:48.985Z,6.15
2017-12-04T03:19:15.353Z,6.21
2017-12-04T03:21:41.790Z,6.20
2017-12-04T03:24:08.191Z,6.21
2017-12-04T03:26:34.625Z,6.24
2017-12-04T03:29:01.868Z,6.16
2017-12-04T03:31:28.211Z,6.09
2017-12-04T03:33:54.645Z,6.12
2017-12-04T03:36:21.081Z,6.16
2017-12-04T03:38:47.515Z,6.18
2017-12-04T03:41:13.882Z,6.11
2017-12-04T03:43:40.282Z,6.06
2017-12-04T03:46:07.513Z,6.08
2017-12-04T03:48:33.871Z,6.09
2017-12-04T03:51:00.237Z,6.09
2017-12-04T03:53:26.636Z,6.03
2017-12-04T03:55:53.069Z,6.16
2017-12-04T03:58:19.506Z,6.19
2017-12-04T04:00:45.939Z,6.17
2017-12-04T04:03:12.990Z,6.09
2017-12-04T04:05:39.353Z,6.04
2017-12-04T04:08:05.767Z,6.05
2017-12-04T04:10:32.189Z,6.10
2017-12-04T04:12:58.643Z,6.02
2017-12-04T04:15:25.057Z,5.95
2017-12-04T04:17:51.588Z,5.78
2017-12-04T04:20:18.644Z,5.73
2017-12-04T04:22:45.185Z,5.69
2017-12-04T04:25:11.616Z,5.51
2017-12-04T04:27:38.050Z,5.55
2017-12-04T04:30:04.486Z,5.62
2017-12-04T04:32:31.022Z,5.45
2017-12-04T04:34:57.369Z,5.47
2017-12-04T04:37:24.608Z,5.47
2017-12-04T04:39:50.938Z,5.44
2017-12-04T04:42:17.377Z,5.40
2017-12-04T04:44:43.812Z,5.46
2017-12-04T04:47:10.178Z,5.42
2017-12-04T04:49:36.595Z,5.43
2017-12-04T04:52:03.019Z,5.40
2017-12-04T04:54:30.265Z,5.42
2017-12-04T04:56:56.802Z,5.33
2017-12-04T04:59:23.237Z,5.27
2017-12-04T05:01:49.671Z,5.18
2017-12-04T05:04:16.105Z,5.12
2017-12-04T05:06:42.541Z,5.12
2017-12-04T05:09:09.113Z,4.85
2017-12-04T05:11:36.126Z,4.95
2017-12-04T05:14:02.561Z,4.94
2017-12-04T05:16:29.000Z,4.89
2017-12-04T05:18:55.329Z,4.83
2017-12-04T05:21:21.762Z,4.89
2017-12-04T05:23:48.197Z,4.87
2017-12-04T05:26:14.631Z,4.87
2017-12-04T05:28:41.784Z,4.95
2017-12-04T05:31:08.218Z,4.99
2017-12-04T05:33:34.653Z,4.86
2017-12-04T05:36:00.984Z,4.86
2017-12-04T05:38:27.317Z,4.76
2017-12-04T05:40:53.737Z,4.78
2017-12-04T05:43:20.117Z,4.74
2017-12-04T05:45:47.378Z,4.71
2017-12-04T05:48:13.773Z,4.72
2017-12-04T05:50:40.206Z,4.74
2017-12-04T05:53:06.744Z,4.77
2017-12-04T05:55:33.178Z,4.88
2017-12-04T05:57:59.613Z,4.76
2017-12-04T06:00:26.049Z,4.93
2017-12-04T06:02:53.100Z,4.92
2017-12-04T06:05:19.841Z,4.85
2017-12-04T06:07:46.216Z,4.84
2017-12-04T06:10:12.605Z,4.82
2017-12-04T06:12:39.247Z,4.83
2017-12-04T06:15:06.439Z,4.88
2017-12-04T06:17:32.851Z,4.80
2017-12-04T06:19:59.267Z,4.80
2017-12-04T06:22:25.680Z,4.69
2017-12-04T06:24:52.530Z,4.81
2017-12-04T06:27:19.842Z,4.88
2017-12-04T06:29:46.302Z,4.88
2017-12-04T06:32:12.744Z,4.93
2017-12-04T06:34:39.205Z,4.97
2017-12-04T06:37:05.660Z,4.90
2017-12-04T06:39:32.073Z,4.92
2017-12-04T06:41:58.510Z,4.88
2017-12-04T06:44:25.028Z,4.90
2017-12-04T06:46:51.481Z,4.97
2017-12-04T06:49:17.916Z,5.02
2017-12-04T06:51:44.757Z,5.08
2017-12-04T06:54:11.090Z,5.11
2017-12-04T06:56:37.525Z,5.10
2017-12-04T06:59:03.901Z,5.13
2017-12-04T07:01:31.202Z,5.11
2017-12-04T07:03:57.544Z,5.13
2017-12-04T07:06:24.092Z,5.14
2017-12-04T07:08:50.516Z,5.21
2017-12-04T07:11:16.952Z,5.25
2017-12-04T07:13:44.205Z,5.29
2017-12-04T07:16:10.727Z,5.32
2017-12-04T07:18:37.178Z,5.30
2017-12-04T07:21:03.611Z,5.29
2017-12-04T07:23:29.947Z,5.34
2017-12-04T07:25:56.481Z,5.34
2017-12-04T07:28:22.853Z,5.35
2017-12-04T07:30:49.555Z,5.37
2017-12-04T07:33:15.994Z,5.50
2017-12-04T07:35:42.536Z,5.57
2017-12-04T07:38:08.906Z,5.62
2017-12-04T07:40:35.294Z,5.67
2017-12-04T07:43:01.712Z,5.66
2017-12-04T07:45:28.130Z,5.71
2017-12-04T07:47:54.571Z,5.76
2017-12-04T07:50:21.134Z,5.77
2017-12-04T07:52:47.569Z,5.64
2017-12-04T07:55:14.108Z,5.69
2017-12-04T07:57:40.438Z,5.75
2017-12-04T08:00:06.872Z,5.78
2017-12-04T08:02:33.307Z,5.83
2017-12-04T08:04:59.741Z,5.79
2017-12-04T08:07:26.074Z,5.84
2017-12-04T08:09:52.508Z,5.78
2017-12-04T08:12:18.943Z,5.82
2017-12-04T08:14:45.377Z,5.85
2017-12-04T08:17:11.973Z,5.90
2017-12-04T08:19:38.451Z,5.97
2017-12-04T08:22:04.886Z,5.99
2017-12-04T08:24:31.425Z,6.06
2017-12-04T08:26:57.860Z,6.10
2017-12-04T08:29:24.230Z,6.22
2017-12-04T08:31:50.932Z,6.36
2017-12-04T08:34:17.374Z,6.39
2017-12-04T08:36:43.903Z,6.45
2017-12-04T08:39:10.338Z,6.40
2017-12-04T08:41:37.172Z,6.37
2017-12-04T08:44:03.619Z,6.45
2017-12-04T08:46:30.052Z,6.42
2017-12-04T08:48:56.573Z,6.49
2017-12-04T08:51:23.019Z,6.56
2017-12-04T08:53:49.394Z,6.58
2017-12-04T08:56:15.994Z,6.55
2017-12-04T08:58:42.304Z,6.64
2017-12-04T09:01:08.761Z,6.68
2017-12-04T09:03:35.196Z,6.78
2017-12-04T09:06:01.718Z,6.82
2017-12-04T09:08:28.118Z,6.76
2017-12-04T09:10:54.576Z,6.72
2017-12-04T09:13:21.119Z,6.62
2017-12-04T09:15:47.676Z,6.56
2017-12-04T09:18:14.111Z,6.56
2017-12-04T09:20:40.546Z,6.60
2017-12-04T09:23:07.021Z,6.64
2017-12-04T09:25:33.458Z,6.63
2017-12-04T09:27:59.952Z,6.50
2017-12-04T09:30:26.386Z,6.45
2017-12-04T09:32:52.759Z,6.38
2017-12-04T09:35:19.223Z,6.38
2017-12-04T09:37:45.665Z,6.29
2017-12-04T09:40:12.125Z,6.38
2017-12-04T09:42:38.459Z,6.49
2017-12-04T09:45:04.994Z,6.65
2017-12-04T09:47:31.366Z,6.71
2017-12-04T09:49:57.732Z,6.69
2017-12-04T09:52:24.605Z,6.63
2017-12-04T09:54:51.040Z,6.60
2017-12-04T09:57:17.409Z,6.52
2017-12-04T09:59:43.812Z,6.50
2017-12-04T10:02:10.246Z,6.35
2017-12-04T10:04:37.085Z,6.35
2017-12-04T10:07:03.929Z,6.34
2017-12-04T10:09:30.367Z,6.36
2017-12-04T10:11:57.208Z,6.28
2017-12-04T10:14:23.748Z,6.25
2017-12-04T10:16:50.592Z,6.29
2017-12-04T10:19:17.024Z,6.30
2017-12-04T10:21:43.405Z,6.33
2017-12-04T10:24:09.722Z,6.38
2017-12-04T10:26:36.225Z,6.31
2017-12-04T10:29:02.661Z,6.41
2017-12-04T10:31:29.098Z,6.49
2017-12-04T10:33:55.531Z,6.53
2017-12-04T10:36:22.066Z,6.53
2017-12-04T10:38:48.854Z,6.44
2017-12-04T10:41:15.335Z,6.36
2017-12-04T10:43:41.883Z,6.35
2017-12-04T10:46:08.317Z,6.32
2017-12-04T10:48:34.752Z,6.25
2017-12-04T10:51:01.186Z,6.21
2017-12-04T10:53:27.620Z,6.26
2017-12-04T10:55:54.161Z,6.08
2017-12-04T10:58:20.595Z,6.11
2017-12-04T11:00:47.234Z,6.09
2017-12-04T11:03:13.667Z,5.98
2017-12-04T11:05:40.101Z,5.96
2017-12-04T11:08:06.535Z,5.94
2017-12-04T11:10:32.969Z,5.85
2017-12-04T11:12:59.342Z,5.75
2017-12-04T11:15:25.740Z,5.73
2017-12-04T11:17:52.109Z,5.68
2017-12-04T11:20:19.124Z,5.54
2017-12-04T11:22:45.553Z,5.40
2017-12-04T11:25:11.988Z,5.36
2017-12-04T11:27:38.532Z,5.36
2017-12-04T11:30:04.914Z,5.37
2017-12-04T11:32:31.370Z,5.38
2017-12-04T11:34:57.930Z,5.43
2017-12-04T11:37:24.364Z,5.47
2017-12-04T11:39:50.800Z,5.57
2017-12-04T11:42:17.235Z,5.65
2017-12-04T11:44:43.975Z,5.70
2017-12-04T11:47:10.412Z,5.79
2017-12-04T11:49:36.866Z,5.81
2017-12-04T11:52:03.286Z,5.85
2017-12-04T11:54:29.661Z,5.96
2017-12-04T11:56:56.167Z,5.95
2017-12-04T11:59:22.778Z,5.95
2017-12-04T12:01:49.231Z,5.85
2017-12-04T12:04:16.478Z,5.73
2017-12-04T12:06:43.008Z,5.85
2017-12-04T12:09:09.381Z,5.77
2017-12-04T12:11:35.780Z,5.67
2017-12-04T12:14:02.112Z,5.63
2017-12-04T12:16:28.855Z,5.65
2017-12-04T12:18:55.801Z,5.70
2017-12-04T12:21:22.632Z,5.71
2017-12-04T12:23:49.081Z,5.75
2017-12-04T12:26:15.618Z,5.88
2017-12-04T12:28:42.052Z,5.98
2017-12-04T12:31:08.692Z,6.00
2017-12-04T12:33:35.080Z,6.01
2017-12-04T12:36:01.561Z,5.99
2017-12-04T12:38:28.404Z,5.98
2017-12-04T12:40:54.837Z,5.92
2017-12-04T12:43:21.273Z,5.92
2017-12-04T12:45:48.017Z,5.85
2017-12-04T12:48:14.689Z,5.83
2017-12-04T12:50:41.088Z,5.85
2017-12-04T12:53:07.587Z,5.85
2017-12-04T12:55:34.265Z,5.86
2017-12-04T12:58:00.701Z,5.86
2017-12-04T13:00:27.346Z,5.85
2017-12-04T13:02:54.191Z,5.80
2017-12-04T13:05:20.724Z,5.77
2017-12-04T13:07:47.159Z,5.77
2017-12-04T13:10:14.071Z,5.80
2017-12-04T13:12:40.537Z,5.68
2017-12-04T13:15:07.011Z,5.84
2017-12-04T13:17:34.123Z,5.78
2017-12-04T13:20:01.169Z,5.73
2017-12-04T13:22:28.016Z,5.69
2017-12-04T13:24:54.509Z,5.70
2017-12-04T13:27:20.987Z,5.71
2017-12-04T13:29:47.386Z,5.71
2017-12-04T13:32:14.472Z,5.77
2017-12-04T13:34:40.868Z,5.73
2017-12-04T13:37:07.312Z,5.72
2017-12-04T13:39:34.288Z,5.68
2017-12-04T13:42:00.794Z,5.59
2017-12-04T13:44:27.260Z,5.45
2017-12-04T13:46:53.800Z,5.40
2017-12-04T13:49:20.434Z,5.37
2017-12-04T13:51:46.916Z,5.39
2017-12-04T13:54:13.410Z,5.19
2017-12-04T13:56:40.047Z,5.29
2017-12-04T13:59:06.481Z,5.23
2017-12-04T14:01:32.915Z,5.21
2017-12-04T14:03:59.862Z,5.19
2017-12-04T14:06:26.537Z,5.08
2017-12-04T14:08:52.936Z,5.16
2017-12-04T14:11:19.372Z,5.10
2017-12-04T14:13:46.131Z,5.08
2017-12-04T14:16:12.649Z,5.11
2017-12-04T14:18:39.083Z,5.08
2017-12-04T14:21:05.518Z,5.06
2017-12-04T14:23:31.957Z,4.98
2017-12-04T14:25:58.490Z,5.00
2017-12-04T14:28:24.925Z,5.05
2017-12-04T14:30:51.565Z,5.04
2017-12-04T14:33:17.998Z,5.11
2017-12-04T14:35:44.518Z,5.10
2017-12-04T14:38:11.380Z,5.09
2017-12-04T14:40:37.814Z,5.07
2017-12-04T14:43:04.249Z,5.13
2017-12-04T14:50:34.099Z,5.13
2017-12-04T14:53:00.739Z,5.14
2017-12-04T14:55:27.299Z,5.09
2017-12-04T14:57:53.710Z,5.08
2017-12-04T15:00:20.043Z,5.05
2017-12-04T15:02:46.927Z,5.04
2017-12-04T15:05:13.359Z,5.07
2017-12-04T15:07:39.690Z,5.06
2017-12-04T15:10:06.479Z,5.02
2017-12-04T15:12:32.922Z,5.01
2017-12-04T15:14:59.367Z,4.97
2017-12-04T15:17:26.206Z,5.01
2017-12-04T15:19:52.645Z,5.01
2017-12-04T15:22:19.080Z,4.95
2017-12-04T15:24:45.807Z,4.93
2017-12-04T15:27:12.258Z,5.00
2017-12-04T15:29:38.736Z,4.99
2017-12-04T15:32:05.127Z,5.02
2017-12-04T15:34:32.095Z,5.09
2017-12-04T15:36:58.694Z,4.94
2017-12-04T15:39:25.148Z,4.98
2017-12-04T15:41:51.582Z,5.01
2017-12-04T15:44:18.018Z,5.06
2017-12-04T15:46:44.455Z,4.99
2017-12-04T15:49:10.786Z,4.99
2017-12-04T15:51:37.154Z,4.99
2017-12-04T15:54:03.654Z,5.04
2017-12-04T15:56:29.962Z,5.01
2017-12-04T15:58:56.419Z,5.04
2017-12-04T16:01:22.854Z,5.07
2017-12-04T16:03:49.325Z,5.02
2017-12-04T16:06:15.781Z,5.06
2017-12-04T16:08:42.114Z,5.08
2017-12-04T16:11:08.582Z,5.06
2017-12-04T16:13:35.028Z,4.94
2017-12-04T16:16:01.358Z,5.04
2017-12-04T16:18:27.896Z,5.05
2017-12-04T16:20:54.330Z,5.05
2017-12-04T16:23:20.764Z,4.86
2017-12-04T16:25:47.199Z,4.99
2017-12-04T16:28:13.531Z,4.96
2017-12-04T16:30:39.965Z,4.96
2017-12-04T16:33:06.386Z,4.98
2017-12-04T16:35:32.851Z,4.94
2017-12-04T16:37:59.242Z,4.89
2017-12-04T16:40:25.709Z,4.86
2017-12-04T16:42:52.035Z,4.88
2017-12-04T16:45:18.471Z,4.92
2017-12-04T16:47:44.857Z,4.90
2017-12-04T16:50:12.057Z,4.88
2017-12-04T16:52:38.471Z,4.90
2017-12-04T16:55:04.824Z,4.88
2017-12-04T16:57:31.259Z,4.81
2017-12-04T16:59:57.795Z,4.80
2017-12-04T17:02:24.166Z,4.87
2017-12-04T17:04:50.566Z,4.86
2017-12-04T17:07:17.796Z,4.73
2017-12-04T17:09:44.238Z,4.84
2017-12-04T17:12:10.685Z,4.85
2017-12-04T17:14:37.057Z,4.83
2017-12-04T17:17:03.394Z,4.83
2017-12-04T17:19:29.777Z,4.81
2017-12-04T17:21:56.219Z,4.79
2017-12-04T17:24:23.373Z,4.86
2017-12-04T17:26:49.807Z,4.82
2017-12-04T17:29:16.137Z,4.77
2017-12-04T17:31:42.468Z,4.79
2017-12-04T17:34:08.886Z,4.62
2017-12-04T17:36:35.339Z,4.74
2017-12-04T17:39:01.778Z,4.69
2017-12-04T17:41:28.924Z,4.74
2017-12-04T17:43:55.360Z,4.66
2017-12-04T17:46:21.794Z,4.65
2017-12-04T17:48:48.210Z,4.64
2017-12-04T17:51:14.653Z,4.62
2017-12-04T17:53:41.097Z,4.60
2017-12-04T17:56:07.531Z,4.57
2017-12-04T17:58:34.580Z,4.59
2017-12-04T18:01:00.951Z,4.50
2017-12-04T18:03:27.469Z,4.45
2017-12-04T18:05:53.886Z,4.51
2017-12-04T18:08:20.340Z,4.41
2017-12-04T18:10:46.754Z,4.37
2017-12-04T18:13:13.208Z,4.43
2017-12-04T18:15:40.340Z,4.39
2017-12-04T18:18:06.774Z,4.31
2017-12-04T18:20:33.209Z,4.38
2017-12-04T18:22:59.662Z,4.30
2017-12-04T18:25:26.080Z,4.29
2017-12-04T18:27:52.412Z,4.19
2017-12-04T18:30:18.742Z,4.17
2017-12-04T18:32:45.936Z,4.13
2017-12-04T18:35:12.431Z,4.12
2017-12-04T18:37:38.763Z,4.18
2017-12-04T18:40:05.199Z,4.18
2017-12-04T18:42:31.631Z,4.04
2017-12-04T18:44:58.068Z,3.88
2017-12-04T18:47:24.493Z,4.00
2017-12-04T18:49:51.756Z,3.96
2017-12-04T18:52:18.192Z,4.00
2017-12-04T18:54:44.625Z,3.99
2017-12-04T18:57:10.993Z,3.96
2017-12-04T18:59:37.326Z,3.96
2017-12-04T19:02:03.694Z,3.93
2017-12-04T19:04:30.058Z,3.87
2017-12-04T19:06:57.346Z,3.96
2017-12-04T19:09:23.745Z,3.95
2017-12-04T19:11:50.179Z,3.98
2017-12-04T19:14:16.614Z,3.79
2017-12-04T19:16:43.048Z,3.76
2017-12-04T19:19:09.482Z,3.76
2017-12-04T19:21:35.919Z,3.76
2017-12-04T19:24:03.047Z,3.72
2017-12-04T19:26:29.489Z,3.76
2017-12-04T19:28:55.938Z,3.69
2017-12-04T19:31:22.375Z,3.74
2017-12-04T19:33:48.790Z,3.68
2017-12-04T19:36:15.140Z,3.71
2017-12-04T19:38:41.573Z,3.55
2017-12-04T19:41:08.726Z,3.63
2017-12-04T19:43:35.168Z,3.59
2017-12-04T19:46:01.595Z,3.50
2017-12-04T19:48:27.926Z,3.62
2017-12-04T19:50:54.361Z,3.57
2017-12-04T19:53:20.693Z,3.51
2017-12-04T19:55:47.128Z,3.47
2017-12-04T19:58:14.279Z,3.44
2017-12-04T20:00:40.818Z,3.41
2017-12-04T20:03:07.250Z,3.35
2017-12-04T20:05:33.618Z,3.27
2017-12-04T20:07:59.950Z,3.26
2017-12-04T20:10:26.454Z,3.20
2017-12-04T20:12:52.887Z,3.18
2017-12-04T20:15:20.038Z,3.15
2017-12-04T20:17:46.477Z,3.20
2017-12-04T20:20:12.842Z,3.16
2017-12-04T20:22:39.241Z,3.19
2017-12-04T20:25:05.676Z,3.23
2017-12-04T20:27:32.009Z,3.21
2017-12-04T20:29:58.376Z,3.20
2017-12-04T20:32:25.696Z,3.05
2017-12-04T20:34:52.030Z,3.17
2017-12-04T20:37:18.463Z,3.13
2017-12-04T20:39:44.900Z,3.09
2017-12-04T20:42:11.314Z,3.06
2017-12-04T20:44:37.662Z,3.04
2017-12-04T20:47:03.997Z,3.07
2017-12-04T20:49:31.454Z,3.01
2017-12-04T20:51:57.888Z,2.97
2017-12-04T20:54:24.331Z,2.85
2017-12-04T20:56:50.758Z,2.79
2017-12-04T20:59:17.125Z,2.71
2017-12-04T21:01:43.500Z,2.70
2017-12-04T21:04:09.958Z,2.70
2017-12-04T21:06:36.942Z,2.68
2017-12-04T21:09:03.340Z,2.68
2017-12-04T21:11:29.774Z,2.70
2017-12-04T21:13:56.210Z,2.63
2017-12-04T21:16:22.644Z,2.53
2017-12-04T21:18:49.078Z,2.55
2017-12-04T21:21:15.532Z,2.54
2017-12-04T21:23:42.650Z,2.51
2017-12-04T21:26:09.098Z,2.50
2017-12-04T21:28:35.634Z,2.52
2017-12-04T21:31:01.951Z,2.49
2017-12-04T21:33:28.299Z,2.46
2017-12-04T21:35:54.753Z,2.50
2017-12-04T21:38:21.132Z,2.45
2017-12-04T21:40:48.321Z,2.42
2017-12-04T21:43:14.755Z,2.42
2017-12-04T21:45:41.189Z,2.45
2017-12-04T21:48:07.624Z,2.46
2017-12-04T21:50:33.958Z,2.47
2017-12-04T21:53:00.494Z,2.43
2017-12-04T21:55:26.963Z,2.51
2017-12-04T21:57:54.182Z,2.46
2017-12-04T22:00:20.616Z,2.47
2017-12-04T22:02:47.058Z,2.28
2017-12-04T22:05:13.485Z,2.42
2017-12-04T22:07:39.920Z,2.42
2017-12-04T22:10:06.251Z,2.43
2017-12-04T22:12:32.686Z,2.37
2017-12-04T22:14:59.123Z,2.36
2017-12-04T22:17:25.453Z,2.36
2017-12-04T22:19:51.888Z,2.32
2017-12-04T22:22:18.254Z,2.29
2017-12-04T22:24:44.658Z,2.25
2017-12-04T22:27:10.985Z,2.26
2017-12-04T22:29:37.354Z,2.28
2017-12-04T22:32:04.492Z,2.19
2017-12-04T22:34:30.838Z,2.19
2017-12-04T22:36:57.231Z,2.18
2017-12-04T22:39:23.673Z,2.21
2017-12-04T22:41:50.209Z,2.17
2017-12-04T22:44:16.643Z,2.14
2017-12-04T22:46:43.078Z,2.12
2017-12-04T22:49:10.332Z,2.12
2017-12-04T22:51:36.769Z,2.09
2017-12-04T22:54:03.137Z,2.07
2017-12-04T22:56:29.472Z,2.06
2017-12-04T22:58:55.865Z,2.07
2017-12-04T23:01:22.197Z,1.91
2017-12-04T23:03:48.633Z,1.97
2017-12-04T23:06:15.784Z,1.90
2017-12-04T23:08:42.218Z,1.89
2017-12-04T23:11:08.653Z,1.85
2017-12-04T23:13:35.089Z,1.83
2017-12-04T23:16:01.427Z,1.83
2017-12-04T23:18:27.853Z,1.75
2017-12-04T23:20:54.289Z,1.74
2017-12-04T23:23:21.527Z,1.51
2017-12-04T23:25:47.874Z,1.75
2017-12-04T23:28:14.308Z,1.74
2017-12-04T23:30:40.799Z,1.75
2017-12-04T23:33:07.179Z,1.79
2017-12-04T23:35:33.612Z,1.81
2017-12-04T23:37:59.981Z,1.76
2017-12-04T23:40:27.290Z,1.73
2017-12-04T23:42:53.735Z,1.66
2017-12-04T23:45:20.107Z,1.66
2017-12-04T23:47:46.605Z,1.66
2017-12-04T23:50:13.041Z,1.61
2017-12-04T23:52:39.476Z,1.63
2017-12-04T23:55:05.805Z,1.63
2017-12-04T23:57:33.061Z,1.60
2017-12-04T23:59:59.495Z,1.58
